Terminal Aerodrome Forecast
Issued by NWS

Home | Current Version | Previous Version | Text Only | Print | Product List | Glossary On
Versions: 1 2 3 4 5 6 7 8 9 10 11 12 13 14 15 16 17 18 19 20
000
FTUS41 KBGM 230400 AAB
TAFRME
TAF AMD
KRME 230400Z 2304/2324 13010KT P6SM SCT012 OVC025
      TEMPO 2305/2309 3SM -RASN BR OVC012
     FM230900 11008KT 5SM -RA BR OVC012
     FM231400 12012KT P6SM OVC015=

USA.gov is the U.S. government's official web portal to all federal, state and local government web resources and services.